sensor_id;sensor_type;location;lat;lon;timestamp;P1;durP1;ratioP1;P2;durP2;ratioP2
61590;SDS011;57639;52.410;-1.966;2023-06-22T00:02:22;3.50;;;2.85;;
61590;SDS011;57639;52.410;-1.966;2023-06-22T00:05:28;3.70;;;2.80;;
61590;SDS011;57639;52.410;-1.966;2023-06-22T00:08:34;3.30;;;2.60;;
61590;SDS011;57639;52.410;-1.966;2023-06-22T00:11:41;3.80;;;2.60;;
61590;SDS011;57639;52.410;-1.966;2023-06-22T00:14:47;3.95;;;3.00;;
61590;SDS011;57639;52.410;-1.966;2023-06-22T00:17:56;3.65;;;2.90;;
61590;SDS011;57639;52.410;-1.966;2023-06-22T00:21:02;3.42;;;2.75;;
61590;SDS011;57639;52.410;-1.966;2023-06-22T00:24:09;3.38;;;2.70;;
61590;SDS011;57639;52.410;-1.966;2023-06-22T00:27:15;3.95;;;2.65;;
61590;SDS011;57639;52.410;-1.966;2023-06-22T00:30:22;3.17;;;2.70;;
61590;SDS011;57639;52.410;-1.966;2023-06-22T00:33:31;3.90;;;3.00;;
61590;SDS011;57639;52.410;-1.966;2023-06-22T00:36:37;3.33;;;2.70;;
61590;SDS011;57639;52.410;-1.966;2023-06-22T00:39:44;3.58;;;2.80;;
61590;SDS011;57639;52.410;-1.966;2023-06-22T00:42:51;4.78;;;2.88;;
61590;SDS011;57639;52.410;-1.966;2023-06-22T00:45:57;3.63;;;2.65;;
61590;SDS011;57639;52.410;-1.966;2023-06-22T00:49:07;3.13;;;2.50;;
61590;SDS011;57639;52.410;-1.966;2023-06-22T00:52:13;3.10;;;2.80;;
61590;SDS011;57639;52.410;-1.966;2023-06-22T00:55:23;4.55;;;2.83;;
61590;SDS011;57639;52.410;-1.966;2023-06-22T00:58:30;3.65;;;2.70;;
61590;SDS011;57639;52.410;-1.966;2023-06-22T01:01:37;3.42;;;2.65;;
61590;SDS011;57639;52.410;-1.966;2023-06-22T01:04:46;4.10;;;2.88;;
61590;SDS011;57639;52.410;-1.966;2023-06-22T01:07:56;3.78;;;3.00;;
61590;SDS011;57639;52.410;-1.966;2023-06-22T01:11:16;3.45;;;2.60;;
61590;SDS011;57639;52.410;-1.966;2023-06-22T01:14:29;3.50;;;3.08;;
61590;SDS011;57639;52.410;-1.966;2023-06-22T01:17:42;3.35;;;2.55;;
61590;SDS011;57639;52.410;-1.966;2023-06-22T01:20:52;3.92;;;2.80;;
61590;SDS011;57639;52.410;-1.966;2023-06-22T01:24:04;3.72;;;2.65;;
61590;SDS011;57639;52.410;-1.966;2023-06-22T01:27:26;2.92;;;2.47;;
61590;SDS011;57639;52.410;-1.966;2023-06-22T01:30:42;4.68;;;2.80;;
61590;SDS011;57639;52.410;-1.966;2023-06-22T01:33:51;2.75;;;2.38;;
61590;SDS011;57639;52.410;-1.966;2023-06-22T01:36:59;3.60;;;2.95;;
61590;SDS011;57639;52.410;-1.966;2023-06-22T01:40:08;3.55;;;2.65;;
61590;SDS011;57639;52.410;-1.966;2023-06-22T01:43:14;4.05;;;3.00;;
61590;SDS011;57639;52.410;-1.966;2023-06-22T01:46:24;2.95;;;2.53;;
61590;SDS011;57639;52.410;-1.966;2023-06-22T01:49:31;3.47;;;2.65;;
61590;SDS011;57639;52.410;-1.966;2023-06-22T01:52:37;3.67;;;2.78;;
61590;SDS011;57639;52.410;-1.966;2023-06-22T01:55:43;3.28;;;2.60;;
61590;SDS011;57639;52.410;-1.966;2023-06-22T01:58:50;3.25;;;2.42;;
61590;SDS011;57639;52.410;-1.966;2023-06-22T02:02:06;3.40;;;2.78;;
61590;SDS011;57639;52.410;-1.966;2023-06-22T02:05:16;3.50;;;2.65;;
61590;SDS011;57639;52.410;-1.966;2023-06-22T02:08:25;4.07;;;2.67;;
61590;SDS011;57639;52.410;-1.966;2023-06-22T02:11:36;3.95;;;2.53;;
61590;SDS011;57639;52.410;-1.966;2023-06-22T02:17:54;2.95;;;2.53;;
61590;SDS011;57639;52.410;-1.966;2023-06-22T02:21:01;3.90;;;2.65;;
61590;SDS011;57639;52.410;-1.966;2023-06-22T02:24:07;3.25;;;2.50;;
61590;SDS011;57639;52.410;-1.966;2023-06-22T02:27:14;3.40;;;2.80;;
61590;SDS011;57639;52.410;-1.966;2023-06-22T02:30:20;3.92;;;2.50;;
61590;SDS011;57639;52.410;-1.966;2023-06-22T02:33:29;3.95;;;2.47;;
61590;SDS011;57639;52.410;-1.966;2023-06-22T02:36:36;3.63;;;2.90;;
61590;SDS011;57639;52.410;-1.966;2023-06-22T02:39:43;3.53;;;2.45;;
61590;SDS011;57639;52.410;-1.966;2023-06-22T02:42:49;2.67;;;2.30;;
61590;SDS011;57639;52.410;-1.966;2023-06-22T02:45:55;3.22;;;2.72;;
61590;SDS011;57639;52.410;-1.966;2023-06-22T02:49:04;3.05;;;2.53;;
61590;SDS011;57639;52.410;-1.966;2023-06-22T02:52:11;3.42;;;2.50;;
61590;SDS011;57639;52.410;-1.966;2023-06-22T02:55:17;3.55;;;2.83;;
61590;SDS011;57639;52.410;-1.966;2023-06-22T02:58:23;2.78;;;2.28;;
61590;SDS011;57639;52.410;-1.966;2023-06-22T03:01:30;4.30;;;2.55;;
61590;SDS011;57639;52.410;-1.966;2023-06-22T03:04:45;3.03;;;2.60;;
61590;SDS011;57639;52.410;-1.966;2023-06-22T03:07:51;3.17;;;2.40;;
61590;SDS011;57639;52.410;-1.966;2023-06-22T03:10:57;3.33;;;2.60;;
61590;SDS011;57639;52.410;-1.966;2023-06-22T03:14:04;2.95;;;2.30;;
61590;SDS011;57639;52.410;-1.966;2023-06-22T03:17:10;2.83;;;2.42;;
61590;SDS011;57639;52.410;-1.966;2023-06-22T03:20:19;3.38;;;2.60;;
61590;SDS011;57639;52.410;-1.966;2023-06-22T03:23:25;4.77;;;2.80;;
61590;SDS011;57639;52.410;-1.966;2023-06-22T03:26:32;2.83;;;2.40;;
61590;SDS011;57639;52.410;-1.966;2023-06-22T03:29:39;3.78;;;2.40;;
61590;SDS011;57639;52.410;-1.966;2023-06-22T03:32:46;2.83;;;2.42;;
61590;SDS011;57639;52.410;-1.966;2023-06-22T03:35:55;2.90;;;2.20;;
61590;SDS011;57639;52.410;-1.966;2023-06-22T03:39:01;2.70;;;2.30;;
61590;SDS011;57639;52.410;-1.966;2023-06-22T03:42:09;3.00;;;2.30;;
61590;SDS011;57639;52.410;-1.966;2023-06-22T03:45:16;2.60;;;2.20;;
61590;SDS011;57639;52.410;-1.966;2023-06-22T03:48:23;2.55;;;2.20;;
61590;SDS011;57639;52.410;-1.966;2023-06-22T03:51:33;2.80;;;2.28;;
61590;SDS011;57639;52.410;-1.966;2023-06-22T03:54:39;2.80;;;2.08;;
61590;SDS011;57639;52.410;-1.966;2023-06-22T03:57:45;2.50;;;2.05;;
61590;SDS011;57639;52.410;-1.966;2023-06-22T04:00:52;3.17;;;2.25;;
61590;SDS011;57639;52.410;-1.966;2023-06-22T04:03:59;2.92;;;2.13;;
61590;SDS011;57639;52.410;-1.966;2023-06-22T04:07:08;3.85;;;2.30;;
61590;SDS011;57639;52.410;-1.966;2023-06-22T04:10:15;3.60;;;2.33;;
61590;SDS011;57639;52.410;-1.966;2023-06-22T04:13:21;2.80;;;2.05;;
61590;SDS011;57639;52.410;-1.966;2023-06-22T04:16:27;3.63;;;2.22;;
61590;SDS011;57639;52.410;-1.966;2023-06-22T04:19:34;4.22;;;2.25;;
61590;SDS011;57639;52.410;-1.966;2023-06-22T04:22:43;3.05;;;2.13;;
61590;SDS011;57639;52.410;-1.966;2023-06-22T04:25:50;2.78;;;2.30;;
61590;SDS011;57639;52.410;-1.966;2023-06-22T04:28:59;3.83;;;2.00;;
61590;SDS011;57639;52.410;-1.966;2023-06-22T04:32:08;2.80;;;2.35;;
61590;SDS011;57639;52.410;-1.966;2023-06-22T04:35:15;2.65;;;1.90;;
61590;SDS011;57639;52.410;-1.966;2023-06-22T04:38:24;3.67;;;2.20;;
61590;SDS011;57639;52.410;-1.966;2023-06-22T04:41:31;2.60;;;2.03;;
61590;SDS011;57639;52.410;-1.966;2023-06-22T04:44:45;2.72;;;2.17;;
61590;SDS011;57639;52.410;-1.966;2023-06-22T04:47:52;3.33;;;2.20;;
61590;SDS011;57639;52.410;-1.966;2023-06-22T04:51:00;2.83;;;2.28;;
61590;SDS011;57639;52.410;-1.966;2023-06-22T04:54:10;4.22;;;2.25;;
61590;SDS011;57639;52.410;-1.966;2023-06-22T04:57:14;3.08;;;2.10;;
61590;SDS011;57639;52.410;-1.966;2023-06-22T05:00:36;3.58;;;2.20;;
61590;SDS011;57639;52.410;-1.966;2023-06-22T05:03:59;2.88;;;1.98;;
61590;SDS011;57639;52.410;-1.966;2023-06-22T05:07:24;3.70;;;2.10;;
61590;SDS011;57639;52.410;-1.966;2023-06-22T05:10:33;3.38;;;2.30;;
61590;SDS011;57639;52.410;-1.966;2023-06-22T05:13:39;3.23;;;2.00;;
61590;SDS011;57639;52.410;-1.966;2023-06-22T05:16:46;3.08;;;2.10;;
61590;SDS011;57639;52.410;-1.966;2023-06-22T05:19:54;2.60;;;1.98;;
61590;SDS011;57639;52.410;-1.966;2023-06-22T05:23:02;2.97;;;2.00;;
61590;SDS011;57639;52.410;-1.966;2023-06-22T05:26:11;2.65;;;1.92;;
61590;SDS011;57639;52.410;-1.966;2023-06-22T05:29:18;2.93;;;2.10;;
61590;SDS011;57639;52.410;-1.966;2023-06-22T05:32:24;2.70;;;1.98;;
61590;SDS011;57639;52.410;-1.966;2023-06-22T05:35:30;2.97;;;2.30;;
61590;SDS011;57639;52.410;-1.966;2023-06-22T05:38:37;2.30;;;1.80;;
61590;SDS011;57639;52.410;-1.966;2023-06-22T05:41:46;2.60;;;2.10;;
61590;SDS011;57639;52.410;-1.966;2023-06-22T05:44:53;2.60;;;2.00;;
61590;SDS011;57639;52.410;-1.966;2023-06-22T05:48:01;2.70;;;1.95;;
61590;SDS011;57639;52.410;-1.966;2023-06-22T05:51:10;3.13;;;2.30;;
61590;SDS011;57639;52.410;-1.966;2023-06-22T05:54:16;2.85;;;1.98;;
61590;SDS011;57639;52.410;-1.966;2023-06-22T05:57:26;3.53;;;2.10;;
61590;SDS011;57639;52.410;-1.966;2023-06-22T06:00:32;2.67;;;2.03;;
61590;SDS011;57639;52.410;-1.966;2023-06-22T06:03:38;3.13;;;2.25;;
61590;SDS011;57639;52.410;-1.966;2023-06-22T06:06:45;2.53;;;1.88;;
61590;SDS011;57639;52.410;-1.966;2023-06-22T06:09:52;3.30;;;2.10;;
61590;SDS011;57639;52.410;-1.966;2023-06-22T06:13:01;3.05;;;2.35;;
61590;SDS011;57639;52.410;-1.966;2023-06-22T06:16:08;5.03;;;2.40;;
61590;SDS011;57639;52.410;-1.966;2023-06-22T06:19:14;2.92;;;2.30;;
61590;SDS011;57639;52.410;-1.966;2023-06-22T06:22:23;3.75;;;2.30;;
61590;SDS011;57639;52.410;-1.966;2023-06-22T06:25:29;4.43;;;2.40;;
61590;SDS011;57639;52.410;-1.966;2023-06-22T06:28:38;3.28;;;2.35;;
61590;SDS011;57639;52.410;-1.966;2023-06-22T06:31:44;3.03;;;2.07;;
61590;SDS011;57639;52.410;-1.966;2023-06-22T06:34:50;3.05;;;2.30;;
61590;SDS011;57639;52.410;-1.966;2023-06-22T06:37:59;2.67;;;2.13;;
61590;SDS011;57639;52.410;-1.966;2023-06-22T06:41:05;4.47;;;2.38;;
61590;SDS011;57639;52.410;-1.966;2023-06-22T06:44:16;3.33;;;2.30;;
61590;SDS011;57639;52.410;-1.966;2023-06-22T06:47:27;4.55;;;2.40;;
61590;SDS011;57639;52.410;-1.966;2023-06-22T06:50:33;3.63;;;2.47;;
61590;SDS011;57639;52.410;-1.966;2023-06-22T06:53:39;4.35;;;2.50;;
61590;SDS011;57639;52.410;-1.966;2023-06-22T06:56:49;4.00;;;2.25;;
61590;SDS011;57639;52.410;-1.966;2023-06-22T07:00:11;5.70;;;2.50;;
61590;SDS011;57639;52.410;-1.966;2023-06-22T07:03:23;2.95;;;2.30;;
61590;SDS011;57639;52.410;-1.966;2023-06-22T07:06:29;4.18;;;2.22;;
61590;SDS011;57639;52.410;-1.966;2023-06-22T07:09:36;3.88;;;2.47;;
61590;SDS011;57639;52.410;-1.966;2023-06-22T07:12:43;7.22;;;2.42;;
61590;SDS011;57639;52.410;-1.966;2023-06-22T07:15:53;3.45;;;2.45;;
61590;SDS011;57639;52.410;-1.966;2023-06-22T07:19:04;4.75;;;2.20;;
61590;SDS011;57639;52.410;-1.966;2023-06-22T07:22:11;4.10;;;2.42;;
61590;SDS011;57639;52.410;-1.966;2023-06-22T07:25:17;3.38;;;2.53;;
61590;SDS011;57639;52.410;-1.966;2023-06-22T07:28:24;3.78;;;2.35;;
61590;SDS011;57639;52.410;-1.966;2023-06-22T07:31:34;3.47;;;2.70;;
61590;SDS011;57639;52.410;-1.966;2023-06-22T07:34:42;5.00;;;2.40;;
61590;SDS011;57639;52.410;-1.966;2023-06-22T07:37:49;6.05;;;2.75;;
61590;SDS011;57639;52.410;-1.966;2023-06-22T07:40:55;2.90;;;2.03;;
61590;SDS011;57639;52.410;-1.966;2023-06-22T07:44:02;3.97;;;2.60;;
61590;SDS011;57639;52.410;-1.966;2023-06-22T07:47:11;3.05;;;2.33;;
61590;SDS011;57639;52.410;-1.966;2023-06-22T07:50:20;3.08;;;2.35;;
61590;SDS011;57639;52.410;-1.966;2023-06-22T07:53:26;3.40;;;2.42;;
61590;SDS011;57639;52.410;-1.966;2023-06-22T07:56:33;3.30;;;2.45;;
61590;SDS011;57639;52.410;-1.966;2023-06-22T07:59:39;5.03;;;2.30;;
61590;SDS011;57639;52.410;-1.966;2023-06-22T08:02:49;3.10;;;2.65;;
61590;SDS011;57639;52.410;-1.966;2023-06-22T08:05:55;3.80;;;2.65;;
61590;SDS011;57639;52.410;-1.966;2023-06-22T08:09:01;4.18;;;2.53;;
61590;SDS011;57639;52.410;-1.966;2023-06-22T08:12:08;3.22;;;2.58;;
61590;SDS011;57639;52.410;-1.966;2023-06-22T08:15:15;4.43;;;2.55;;
61590;SDS011;57639;52.410;-1.966;2023-06-22T08:18:25;3.40;;;2.55;;
61590;SDS011;57639;52.410;-1.966;2023-06-22T08:21:32;4.53;;;2.70;;
61590;SDS011;57639;52.410;-1.966;2023-06-22T08:24:38;4.07;;;2.65;;
61590;SDS011;57639;52.410;-1.966;2023-06-22T08:27:45;3.47;;;2.70;;
61590;SDS011;57639;52.410;-1.966;2023-06-22T08:30:52;3.90;;;2.70;;
61590;SDS011;57639;52.410;-1.966;2023-06-22T08:34:02;3.30;;;2.53;;
61590;SDS011;57639;52.410;-1.966;2023-06-22T08:37:09;4.90;;;2.72;;
61590;SDS011;57639;52.410;-1.966;2023-06-22T08:40:17;3.10;;;2.50;;
61590;SDS011;57639;52.410;-1.966;2023-06-22T08:43:23;4.25;;;2.80;;
61590;SDS011;57639;52.410;-1.966;2023-06-22T08:46:30;3.83;;;2.63;;
61590;SDS011;57639;52.410;-1.966;2023-06-22T08:49:44;3.80;;;2.63;;
61590;SDS011;57639;52.410;-1.966;2023-06-22T08:52:52;3.33;;;2.55;;
61590;SDS011;57639;52.410;-1.966;2023-06-22T08:55:58;3.70;;;2.90;;
61590;SDS011;57639;52.410;-1.966;2023-06-22T08:59:05;3.85;;;2.38;;
61590;SDS011;57639;52.410;-1.966;2023-06-22T09:02:12;3.60;;;2.58;;
61590;SDS011;57639;52.410;-1.966;2023-06-22T09:05:24;3.55;;;2.63;;
61590;SDS011;57639;52.410;-1.966;2023-06-22T09:08:31;3.00;;;2.30;;
61590;SDS011;57639;52.410;-1.966;2023-06-22T09:11:38;5.13;;;2.67;;
61590;SDS011;57639;52.410;-1.966;2023-06-22T09:14:44;4.10;;;2.63;;
61590;SDS011;57639;52.410;-1.966;2023-06-22T09:17:51;3.88;;;2.75;;
61590;SDS011;57639;52.410;-1.966;2023-06-22T09:21:02;3.20;;;2.67;;
61590;SDS011;57639;52.410;-1.966;2023-06-22T09:24:12;3.70;;;2.80;;
61590;SDS011;57639;52.410;-1.966;2023-06-22T09:27:25;4.85;;;2.70;;
61590;SDS011;57639;52.410;-1.966;2023-06-22T09:30:34;3.38;;;2.55;;
61590;SDS011;57639;52.410;-1.966;2023-06-22T09:33:40;4.60;;;2.85;;
61590;SDS011;57639;52.410;-1.966;2023-06-22T09:36:50;2.90;;;2.30;;
61590;SDS011;57639;52.410;-1.966;2023-06-22T09:39:57;3.20;;;2.60;;
61590;SDS011;57639;52.410;-1.966;2023-06-22T09:43:03;3.30;;;2.45;;
61590;SDS011;57639;52.410;-1.966;2023-06-22T09:46:10;3.80;;;2.60;;
61590;SDS011;57639;52.410;-1.966;2023-06-22T09:49:16;3.55;;;2.67;;
61590;SDS011;57639;52.410;-1.966;2023-06-22T09:52:25;2.97;;;2.30;;
61590;SDS011;57639;52.410;-1.966;2023-06-22T09:55:32;3.47;;;2.77;;
61590;SDS011;57639;52.410;-1.966;2023-06-22T09:58:38;3.40;;;2.53;;
61590;SDS011;57639;52.410;-1.966;2023-06-22T10:01:44;4.50;;;2.72;;
61590;SDS011;57639;52.410;-1.966;2023-06-22T10:04:51;3.53;;;2.70;;
61590;SDS011;57639;52.410;-1.966;2023-06-22T10:08:00;3.80;;;2.67;;
61590;SDS011;57639;52.410;-1.966;2023-06-22T10:11:06;4.57;;;2.47;;
61590;SDS011;57639;52.410;-1.966;2023-06-22T10:14:12;3.28;;;2.55;;
61590;SDS011;57639;52.410;-1.966;2023-06-22T10:17:19;3.25;;;2.33;;
61590;SDS011;57639;52.410;-1.966;2023-06-22T10:20:25;3.35;;;2.67;;
61590;SDS011;57639;52.410;-1.966;2023-06-22T10:23:36;2.85;;;2.42;;
61590;SDS011;57639;52.410;-1.966;2023-06-22T10:26:42;3.72;;;2.55;;
61590;SDS011;57639;52.410;-1.966;2023-06-22T10:29:49;4.10;;;2.60;;
61590;SDS011;57639;52.410;-1.966;2023-06-22T10:32:56;3.33;;;2.60;;
61590;SDS011;57639;52.410;-1.966;2023-06-22T10:36:03;4.07;;;3.08;;
61590;SDS011;57639;52.410;-1.966;2023-06-22T10:39:12;3.78;;;2.70;;
61590;SDS011;57639;52.410;-1.966;2023-06-22T10:42:18;3.60;;;2.90;;
61590;SDS011;57639;52.410;-1.966;2023-06-22T10:45:28;4.07;;;2.88;;
61590;SDS011;57639;52.410;-1.966;2023-06-22T10:48:40;3.25;;;2.42;;
61590;SDS011;57639;52.410;-1.966;2023-06-22T10:51:51;4.40;;;2.67;;
61590;SDS011;57639;52.410;-1.966;2023-06-22T10:55:03;3.53;;;2.70;;
61590;SDS011;57639;52.410;-1.966;2023-06-22T10:58:09;3.50;;;2.58;;
61590;SDS011;57639;52.410;-1.966;2023-06-22T11:01:19;3.40;;;2.60;;
61590;SDS011;57639;52.410;-1.966;2023-06-22T11:04:28;3.13;;;2.70;;
61590;SDS011;57639;52.410;-1.966;2023-06-22T11:07:35;3.65;;;2.70;;
61590;SDS011;57639;52.410;-1.966;2023-06-22T11:10:48;4.57;;;2.60;;
61590;SDS011;57639;52.410;-1.966;2023-06-22T11:13:57;3.80;;;2.83;;
61590;SDS011;57639;52.410;-1.966;2023-06-22T11:17:04;3.30;;;2.40;;
61590;SDS011;57639;52.410;-1.966;2023-06-22T11:20:11;3.95;;;2.80;;
61590;SDS011;57639;52.410;-1.966;2023-06-22T11:23:20;3.78;;;2.88;;
61590;SDS011;57639;52.410;-1.966;2023-06-22T11:26:34;4.20;;;2.50;;
61590;SDS011;57639;52.410;-1.966;2023-06-22T11:29:40;3.15;;;2.40;;
61590;SDS011;57639;52.410;-1.966;2023-06-22T11:32:47;3.35;;;2.75;;
61590;SDS011;57639;52.410;-1.966;2023-06-22T11:35:53;3.20;;;2.60;;
61590;SDS011;57639;52.410;-1.966;2023-06-22T11:38:59;3.70;;;2.83;;
61590;SDS011;57639;52.410;-1.966;2023-06-22T11:42:09;3.13;;;2.72;;
61590;SDS011;57639;52.410;-1.966;2023-06-22T11:45:17;3.00;;;2.45;;
61590;SDS011;57639;52.410;-1.966;2023-06-22T11:48:23;3.10;;;2.42;;
61590;SDS011;57639;52.410;-1.966;2023-06-22T11:51:32;3.72;;;2.45;;
61590;SDS011;57639;52.410;-1.966;2023-06-22T11:54:39;3.13;;;2.40;;
61590;SDS011;57639;52.410;-1.966;2023-06-22T11:58:06;3.38;;;2.47;;
61590;SDS011;57639;52.410;-1.966;2023-06-22T12:01:14;3.42;;;2.63;;
61590;SDS011;57639;52.410;-1.966;2023-06-22T12:04:20;3.58;;;2.75;;
61590;SDS011;57639;52.410;-1.966;2023-06-22T12:07:28;3.10;;;2.53;;
61590;SDS011;57639;52.410;-1.966;2023-06-22T12:10:40;3.55;;;2.70;;
61590;SDS011;57639;52.410;-1.966;2023-06-22T12:13:49;2.85;;;2.50;;
61590;SDS011;57639;52.410;-1.966;2023-06-22T12:16:55;3.07;;;2.47;;
61590;SDS011;57639;52.410;-1.966;2023-06-22T12:20:02;3.85;;;2.72;;
61590;SDS011;57639;52.410;-1.966;2023-06-22T12:23:10;3.33;;;2.38;;
61590;SDS011;57639;52.410;-1.966;2023-06-22T12:26:16;3.20;;;2.70;;
61590;SDS011;57639;52.410;-1.966;2023-06-22T12:29:28;3.25;;;2.60;;
61590;SDS011;57639;52.410;-1.966;2023-06-22T12:32:35;2.83;;;2.23;;
61590;SDS011;57639;52.410;-1.966;2023-06-22T12:35:41;3.30;;;2.50;;
61590;SDS011;57639;52.410;-1.966;2023-06-22T12:38:47;3.65;;;2.45;;
61590;SDS011;57639;52.410;-1.966;2023-06-22T12:41:57;3.40;;;2.47;;
61590;SDS011;57639;52.410;-1.966;2023-06-22T12:45:07;3.53;;;2.60;;
61590;SDS011;57639;52.410;-1.966;2023-06-22T12:48:14;3.53;;;2.83;;
61590;SDS011;57639;52.410;-1.966;2023-06-22T12:51:20;4.07;;;2.33;;
61590;SDS011;57639;52.410;-1.966;2023-06-22T12:54:27;2.88;;;2.53;;
61590;SDS011;57639;52.410;-1.966;2023-06-22T12:57:33;2.92;;;2.63;;
61590;SDS011;57639;52.410;-1.966;2023-06-22T13:00:43;2.97;;;2.60;;
61590;SDS011;57639;52.410;-1.966;2023-06-22T13:03:49;3.42;;;2.50;;
61590;SDS011;57639;52.410;-1.966;2023-06-22T13:06:56;3.30;;;2.60;;
61590;SDS011;57639;52.410;-1.966;2023-06-22T13:10:02;3.70;;;2.45;;
61590;SDS011;57639;52.410;-1.966;2023-06-22T13:13:09;2.97;;;2.60;;
61590;SDS011;57639;52.410;-1.966;2023-06-22T13:16:21;2.63;;;2.25;;
61590;SDS011;57639;52.410;-1.966;2023-06-22T13:19:27;3.25;;;2.63;;
61590;SDS011;57639;52.410;-1.966;2023-06-22T13:22:35;3.53;;;2.70;;
61590;SDS011;57639;52.410;-1.966;2023-06-22T13:25:47;2.90;;;2.50;;
61590;SDS011;57639;52.410;-1.966;2023-06-22T13:28:53;3.00;;;2.60;;
61590;SDS011;57639;52.410;-1.966;2023-06-22T13:32:02;3.60;;;2.70;;
61590;SDS011;57639;52.410;-1.966;2023-06-22T13:35:10;3.20;;;2.50;;
61590;SDS011;57639;52.410;-1.966;2023-06-22T13:38:16;3.08;;;2.50;;
61590;SDS011;57639;52.410;-1.966;2023-06-22T13:41:23;3.53;;;2.80;;
61590;SDS011;57639;52.410;-1.966;2023-06-22T13:44:29;3.10;;;2.40;;
61590;SDS011;57639;52.410;-1.966;2023-06-22T13:47:44;2.63;;;2.37;;
61590;SDS011;57639;52.410;-1.966;2023-06-22T13:50:50;3.22;;;2.67;;
61590;SDS011;57639;52.410;-1.966;2023-06-22T13:53:56;3.22;;;2.50;;
61590;SDS011;57639;52.410;-1.966;2023-06-22T13:57:03;2.72;;;2.38;;
61590;SDS011;57639;52.410;-1.966;2023-06-22T14:00:10;2.90;;;2.38;;
61590;SDS011;57639;52.410;-1.966;2023-06-22T14:03:20;3.22;;;2.70;;
61590;SDS011;57639;52.410;-1.966;2023-06-22T14:06:30;3.00;;;2.58;;
61590;SDS011;57639;52.410;-1.966;2023-06-22T14:09:36;3.50;;;2.60;;
61590;SDS011;57639;52.410;-1.966;2023-06-22T14:12:42;2.90;;;2.42;;
61590;SDS011;57639;52.410;-1.966;2023-06-22T14:15:49;3.10;;;2.45;;
61590;SDS011;57639;52.410;-1.966;2023-06-22T14:18:59;3.35;;;2.47;;
61590;SDS011;57639;52.410;-1.966;2023-06-22T14:22:05;2.70;;;2.40;;
61590;SDS011;57639;52.410;-1.966;2023-06-22T14:25:12;2.88;;;2.45;;
61590;SDS011;57639;52.410;-1.966;2023-06-22T14:28:18;3.08;;;2.30;;
61590;SDS011;57639;52.410;-1.966;2023-06-22T14:31:24;3.63;;;2.42;;
61590;SDS011;57639;52.410;-1.966;2023-06-22T14:34:34;3.00;;;2.47;;
61590;SDS011;57639;52.410;-1.966;2023-06-22T14:37:41;3.00;;;2.50;;
61590;SDS011;57639;52.410;-1.966;2023-06-22T14:40:48;2.67;;;2.20;;
61590;SDS011;57639;52.410;-1.966;2023-06-22T14:43:54;3.13;;;2.40;;
61590;SDS011;57639;52.410;-1.966;2023-06-22T14:47:00;2.65;;;2.35;;
61590;SDS011;57639;52.410;-1.966;2023-06-22T14:50:10;3.38;;;2.40;;
61590;SDS011;57639;52.410;-1.966;2023-06-22T14:53:16;2.60;;;2.08;;
61590;SDS011;57639;52.410;-1.966;2023-06-22T14:56:22;2.47;;;2.13;;
61590;SDS011;57639;52.410;-1.966;2023-06-22T14:59:29;2.78;;;2.10;;
61590;SDS011;57639;52.410;-1.966;2023-06-22T15:02:37;2.58;;;2.10;;
61590;SDS011;57639;52.410;-1.966;2023-06-22T15:05:46;2.75;;;2.00;;
61590;SDS011;57639;52.410;-1.966;2023-06-22T15:08:52;2.72;;;2.33;;
61590;SDS011;57639;52.410;-1.966;2023-06-22T15:11:59;2.50;;;2.00;;
61590;SDS011;57639;52.410;-1.966;2023-06-22T15:15:08;2.40;;;2.08;;
61590;SDS011;57639;52.410;-1.966;2023-06-22T15:18:15;3.08;;;2.00;;
61590;SDS011;57639;52.410;-1.966;2023-06-22T15:21:25;2.75;;;2.28;;
61590;SDS011;57639;52.410;-1.966;2023-06-22T15:24:33;2.35;;;1.98;;
61590;SDS011;57639;52.410;-1.966;2023-06-22T15:27:40;3.88;;;2.55;;
61590;SDS011;57639;52.410;-1.966;2023-06-22T15:30:46;2.45;;;2.13;;
61590;SDS011;57639;52.410;-1.966;2023-06-22T15:33:54;2.40;;;2.20;;
61590;SDS011;57639;52.410;-1.966;2023-06-22T15:37:03;2.97;;;2.42;;
61590;SDS011;57639;52.410;-1.966;2023-06-22T15:40:10;2.30;;;2.00;;
61590;SDS011;57639;52.410;-1.966;2023-06-22T15:43:17;2.72;;;2.28;;
61590;SDS011;57639;52.410;-1.966;2023-06-22T15:46:32;2.58;;;2.38;;
61590;SDS011;57639;52.410;-1.966;2023-06-22T15:49:38;2.42;;;2.22;;
61590;SDS011;57639;52.410;-1.966;2023-06-22T15:52:47;2.33;;;1.95;;
61590;SDS011;57639;52.410;-1.966;2023-06-22T15:55:54;2.58;;;2.28;;
61590;SDS011;57639;52.410;-1.966;2023-06-22T15:59:00;2.53;;;1.90;;
61590;SDS011;57639;52.410;-1.966;2023-06-22T16:02:07;2.67;;;2.10;;
61590;SDS011;57639;52.410;-1.966;2023-06-22T16:05:14;2.22;;;1.80;;
61590;SDS011;57639;52.410;-1.966;2023-06-22T16:08:23;2.75;;;2.15;;
61590;SDS011;57639;52.410;-1.966;2023-06-22T16:11:32;3.15;;;2.30;;
61590;SDS011;57639;52.410;-1.966;2023-06-22T16:14:39;2.25;;;1.90;;
61590;SDS011;57639;52.410;-1.966;2023-06-22T16:17:45;3.40;;;2.10;;
61590;SDS011;57639;52.410;-1.966;2023-06-22T16:20:51;2.88;;;2.50;;
61590;SDS011;57639;52.410;-1.966;2023-06-22T16:24:01;7.30;;;2.30;;
61590;SDS011;57639;52.410;-1.966;2023-06-22T16:27:07;2.65;;;2.00;;
61590;SDS011;57639;52.410;-1.966;2023-06-22T16:30:14;2.55;;;2.10;;
61590;SDS011;57639;52.410;-1.966;2023-06-22T16:33:20;3.15;;;2.22;;
61590;SDS011;57639;52.410;-1.966;2023-06-22T16:36:32;3.95;;;2.30;;
61590;SDS011;57639;52.410;-1.966;2023-06-22T16:39:41;3.50;;;2.05;;
61590;SDS011;57639;52.410;-1.966;2023-06-22T16:42:48;3.60;;;2.03;;
61590;SDS011;57639;52.410;-1.966;2023-06-22T16:45:58;4.03;;;2.22;;
61590;SDS011;57639;52.410;-1.966;2023-06-22T16:49:05;3.45;;;2.20;;
61590;SDS011;57639;52.410;-1.966;2023-06-22T16:52:11;3.42;;;2.47;;
61590;SDS011;57639;52.410;-1.966;2023-06-22T16:55:21;2.45;;;2.10;;
61590;SDS011;57639;52.410;-1.966;2023-06-22T16:58:30;3.05;;;2.42;;
61590;SDS011;57639;52.410;-1.966;2023-06-22T17:01:37;2.50;;;2.20;;
61590;SDS011;57639;52.410;-1.966;2023-06-22T17:04:53;3.67;;;2.08;;
61590;SDS011;57639;52.410;-1.966;2023-06-22T17:08:02;4.53;;;2.05;;
61590;SDS011;57639;52.410;-1.966;2023-06-22T17:11:18;4.15;;;2.40;;
61590;SDS011;57639;52.410;-1.966;2023-06-22T17:14:26;2.90;;;2.08;;
61590;SDS011;57639;52.410;-1.966;2023-06-22T17:17:36;5.82;;;2.40;;
61590;SDS011;57639;52.410;-1.966;2023-06-22T17:20:47;4.40;;;2.33;;
61590;SDS011;57639;52.410;-1.966;2023-06-22T17:23:53;3.95;;;2.30;;
61590;SDS011;57639;52.410;-1.966;2023-06-22T17:27:08;3.00;;;2.40;;
61590;SDS011;57639;52.410;-1.966;2023-06-22T17:30:31;3.38;;;2.30;;
61590;SDS011;57639;52.410;-1.966;2023-06-22T17:33:37;2.75;;;2.08;;
61590;SDS011;57639;52.410;-1.966;2023-06-22T17:36:44;2.70;;;2.15;;
61590;SDS011;57639;52.410;-1.966;2023-06-22T17:39:54;2.65;;;2.35;;
61590;SDS011;57639;52.410;-1.966;2023-06-22T17:43:05;4.38;;;2.10;;
61590;SDS011;57639;52.410;-1.966;2023-06-22T17:46:12;3.53;;;2.30;;
61590;SDS011;57639;52.410;-1.966;2023-06-22T17:49:23;3.53;;;2.38;;
61590;SDS011;57639;52.410;-1.966;2023-06-22T17:52:37;3.38;;;2.40;;
61590;SDS011;57639;52.410;-1.966;2023-06-22T17:55:43;2.47;;;2.15;;
61590;SDS011;57639;52.410;-1.966;2023-06-22T17:58:55;2.60;;;2.33;;
61590;SDS011;57639;52.410;-1.966;2023-06-22T18:02:06;3.85;;;2.13;;
61590;SDS011;57639;52.410;-1.966;2023-06-22T18:05:14;3.28;;;2.17;;
61590;SDS011;57639;52.410;-1.966;2023-06-22T18:08:23;2.28;;;2.08;;
61590;SDS011;57639;52.410;-1.966;2023-06-22T18:11:35;3.53;;;2.17;;
61590;SDS011;57639;52.410;-1.966;2023-06-22T18:14:49;2.85;;;2.17;;
61590;SDS011;57639;52.410;-1.966;2023-06-22T18:17:58;2.58;;;2.10;;
61590;SDS011;57639;52.410;-1.966;2023-06-22T18:21:05;2.42;;;2.08;;
61590;SDS011;57639;52.410;-1.966;2023-06-22T18:24:15;4.50;;;2.47;;
61590;SDS011;57639;52.410;-1.966;2023-06-22T18:27:22;3.28;;;2.30;;
61590;SDS011;57639;52.410;-1.966;2023-06-22T18:30:36;2.65;;;2.17;;
61590;SDS011;57639;52.410;-1.966;2023-06-22T18:33:42;3.40;;;2.20;;
61590;SDS011;57639;52.410;-1.966;2023-06-22T18:36:49;3.15;;;2.40;;
61590;SDS011;57639;52.410;-1.966;2023-06-22T18:39:59;2.75;;;2.40;;